Time,TemperatureF,DewpointF,PressureIn,WindDirection,WindDirectionDegrees,WindSpeedMPH,WindSpeedGustMPH,Humidity,HourlyPrecipIn,Conditions,Clouds,dailyrainin,SolarRadiationWatts/m^2,SoftwareType,DateUTC
2013-10-11 00:01:00,73.8,62.1,29.92,SE,135,4.6,4.9,67,0.00,CLR,,0.00,0.0,WeatherDisplay:10.37,2013-10-11 05:01:00,
2013-10-11 00:06:00,73.8,62.1,29.92,ESE,112,4.6,4.9,67,0.00,CLR,,0.00,0.0,WeatherDisplay:10.37,2013-10-11 05:06:00,
2013-10-11 00:11:00,73.6,62.4,29.91,SE,135,4.6,4.7,68,0.00,CLR,,0.00,0.0,WeatherDisplay:10.37,2013-10-11 05:11:00,
2013-10-11 00:16:00,73.6,62.4,29.91,SSE,158,10.4,10.4,68,0.00,CLR,,0.00,0.0,WeatherDisplay:10.37,2013-10-11 05:16:00,
2013-10-11 00:21:00,73.6,62.4,29.91,SE,135,6.9,6.9,68,0.00,CLR,,0.00,0.0,WeatherDisplay:10.37,2013-10-11 05:21:00,
2013-10-11 00:26:00,73.6,62.8,29.91,SSE,158,9.2,9.2,69,0.00,CLR,,0.00,0.0,WeatherDisplay:10.37,2013-10-11 05:26:00,
2013-10-11 00:31:00,73.4,62.6,29.91,SE,135,6.9,6.9,69,0.00,CLR,,0.00,0.0,WeatherDisplay:10.37,2013-10-11 05:31:00,
2013-10-11 00:36:00,73.6,62.8,29.91,SE,135,5.8,5.8,69,0.00,CLR,,0.00,0.0,WeatherDisplay:10.37,2013-10-11 05:36:00,
2013-10-11 00:41:00,73.4,63.0,29.91,SSE,158,5.8,5.8,70,0.00,CLR,,0.00,0.0,WeatherDisplay:10.37,2013-10-11 05:41:00,
2013-10-11 00:46:00,73.4,63.0,29.91,ESE,112,9.2,9.2,70,0.00,CLR,,0.00,0.0,WeatherDisplay:10.37,2013-10-11 05:46:00,
2013-10-11 00:51:00,73.2,62.8,29.91,ESE,112,6.9,6.9,70,0.00,CLR,,0.00,0.0,WeatherDisplay:10.37,2013-10-11 05:51:00,
2013-10-11 00:56:00,73.2,63.2,29.91,SE,135,11.5,11.5,71,0.00,CLR,,0.00,0.0,WeatherDisplay:10.37,2013-10-11 05:56:00,
2013-10-11 01:01:00,73.2,63.2,29.91,SW,225,9.2,9.2,71,0.00,CLR,,0.00,0.0,WeatherDisplay:10.37,2013-10-11 06:01:00,
2013-10-11 01:06:00,73.2,63.2,29.91,ENE,68,8.1,8.1,71,0.00,CLR,,0.00,0.0,WeatherDisplay:10.37,2013-10-11 06:06:00,
2013-10-11 01:11:00,73.0,63.5,29.90,SSE,158,10.4,10.4,72,0.00,CLR,,0.00,0.0,WeatherDisplay:10.37,2013-10-11 06:11:00,
2013-10-11 01:16:00,73.2,63.6,29.90,SE,135,3.5,6.3,72,0.00,CLR,,0.00,0.0,WeatherDisplay:10.37,2013-10-11 06:16:00,
2013-10-11 01:21:00,73.0,63.9,29.90,SSE,158,4.6,6.6,73,0.00,CLR,,0.00,0.0,WeatherDisplay:10.37,2013-10-11 06:21:00,
2013-10-11 01:27:00,72.9,63.7,29.90,SSE,158,9.2,9.2,73,0.00,CLR,,0.00,0.0,WeatherDisplay:10.37,2013-10-11 06:27:00,
2013-10-11 01:32:00,72.9,63.7,29.90,South,180,10.4,10.4,73,0.00,CLR,,0.00,0.0,WeatherDisplay:10.37,2013-10-11 06:32:00,
2013-10-11 01:37:00,72.9,64.1,29.90,ESE,112,9.2,9.2,74,0.00,CLR,,0.00,0.0,WeatherDisplay:10.37,2013-10-11 06:37:00,
2013-10-11 01:42:00,72.9,64.1,29.90,East,90,10.4,10.4,74,0.00,CLR,,0.00,0.0,WeatherDisplay:10.37,2013-10-11 06:42:00,
2013-10-11 01:47:00,72.5,63.7,29.90,SSE,158,9.2,9.2,74,0.00,CLR,,0.00,0.0,WeatherDisplay:10.37,2013-10-11 06:47:00,
2013-10-11 01:52:00,72.5,63.7,29.89,ESE,112,9.2,9.2,74,0.00,CLR,,0.00,0.0,WeatherDisplay:10.37,2013-10-11 06:52:00,
2013-10-11 01:57:00,72.5,64.1,29.89,SSE,158,10.8,10.8,75,0.00,CLR,,0.00,0.0,WeatherDisplay:10.37,2013-10-11 06:57:00,
2013-10-11 02:02:00,72.3,63.9,29.89,SE,135,10.4,10.4,75,0.00,CLR,,0.00,0.0,WeatherDisplay:10.37,2013-10-11 07:02:00,
2013-10-11 02:07:00,72.3,64.3,29.89,SE,135,4.6,5.3,76,0.00,CLR,,0.00,0.0,WeatherDisplay:10.37,2013-10-11 07:07:00,
2013-10-11 02:12:00,72.5,64.5,29.91,SE,135,9.2,9.2,76,0.00,CLR,,0.00,0.0,WeatherDisplay:10.37,2013-10-11 07:12:00,
2013-10-11 02:17:00,72.3,64.3,29.91,ESE,112,3.5,4.8,76,0.00,CLR,,0.00,0.0,WeatherDisplay:10.37,2013-10-11 07:17:00,
2013-10-11 02:22:00,72.3,64.3,29.91,SE,135,9.2,9.2,76,0.00,CLR,,0.00,0.0,WeatherDisplay:10.37,2013-10-11 07:22:00,
2013-10-11 02:27:00,72.1,64.5,29.91,SE,135,9.2,9.2,77,0.00,CLR,,0.00,0.0,WeatherDisplay:10.37,2013-10-11 07:27:00,
2013-10-11 02:32:00,72.1,64.5,29.91,ESE,112,5.8,5.8,77,0.00,CLR,,0.00,0.0,WeatherDisplay:10.37,2013-10-11 07:32:00,
2013-10-11 02:37:00,72.1,64.5,29.91,South,180,4.6,4.6,77,0.00,CLR,,0.00,0.0,WeatherDisplay:10.37,2013-10-11 07:37:00,
2013-10-11 02:42:00,72.1,64.9,29.91,SSE,158,4.6,4.6,78,0.00,CLR,,0.00,0.0,WeatherDisplay:10.37,2013-10-11 07:42:00,
2013-10-11 02:47:00,72.1,64.5,29.91,SE,135,4.6,4.6,77,0.00,CLR,,0.00,0.0,WeatherDisplay:10.37,2013-10-11 07:47:00,
2013-10-11 02:52:00,72.0,64.7,29.90,NW,315,2.3,2.8,78,0.00,CLR,,0.00,0.0,WeatherDisplay:10.37,2013-10-11 07:52:00,
2013-10-11 02:57:00,72.0,64.7,29.90,South,180,2.3,2.6,78,0.00,CLR,,0.00,0.0,WeatherDisplay:10.37,2013-10-11 07:57:00,
2013-10-11 03:02:00,72.1,64.9,29.90,SE,135,3.5,3.5,78,0.00,CLR,,0.00,0.0,WeatherDisplay:10.37,2013-10-11 08:02:00,
2013-10-11 03:07:00,72.1,64.9,29.90,SE,135,2.5,2.6,78,0.00,CLR,,0.00,0.0,WeatherDisplay:10.37,2013-10-11 08:07:00,
2013-10-11 03:12:00,72.1,65.3,29.91,South,180,5.8,5.8,79,0.00,CLR,,0.00,0.0,WeatherDisplay:10.37,2013-10-11 08:12:00,
2013-10-11 03:17:00,72.1,65.3,29.91,South,180,1.4,3.2,79,0.00,CLR,,0.00,0.0,WeatherDisplay:10.37,2013-10-11 08:17:00,
2013-10-11 03:22:00,72.1,65.3,29.91,WSW,248,4.6,4.6,79,0.00,CLR,,0.00,0.0,WeatherDisplay:10.37,2013-10-11 08:22:00,
2013-10-11 03:27:00,72.1,65.3,29.91,ENE,68,4.6,4.6,79,0.00,CLR,,0.00,0.0,WeatherDisplay:10.37,2013-10-11 08:27:00,
2013-10-11 03:32:00,72.1,65.6,29.91,SSE,158,4.6,4.6,80,0.00,CLR,,0.00,0.0,WeatherDisplay:10.37,2013-10-11 08:32:00,
2013-10-11 03:37:00,72.0,65.1,29.91,South,180,2.3,2.6,79,0.00,CLR,,0.00,0.0,WeatherDisplay:10.37,2013-10-11 08:37:00,
2013-10-11 03:42:00,72.1,65.6,29.91,SSE,158,4.6,4.6,80,0.00,CLR,,0.00,0.0,WeatherDisplay:10.37,2013-10-11 08:42:00,
2013-10-11 03:47:00,72.0,65.1,29.91,SSE,158,3.5,3.5,79,0.00,CLR,,0.00,0.0,WeatherDisplay:10.37,2013-10-11 08:47:00,
2013-10-11 03:52:00,72.0,65.1,29.91,South,180,5.8,5.8,79,0.00,CLR,,0.00,0.0,WeatherDisplay:10.37,2013-10-11 08:52:00,
2013-10-11 03:57:00,72.0,65.5,29.91,South,180,5.8,5.8,80,0.00,CLR,,0.00,0.0,WeatherDisplay:10.37,2013-10-11 08:57:00,
2013-10-11 04:02:00,72.1,65.6,29.91,SW,225,3.5,4.1,80,0.00,CLR,,0.00,0.0,WeatherDisplay:10.37,2013-10-11 09:02:00,
2013-10-11 04:07:00,72.0,65.5,29.91,SE,135,3.6,4.0,80,0.00,CLR,,0.00,0.0,WeatherDisplay:10.37,2013-10-11 09:07:00,
2013-10-11 04:12:00,71.8,65.3,29.90,SSE,158,7.0,7.0,80,0.00,CLR,,0.00,0.0,WeatherDisplay:10.37,2013-10-11 09:12:00,
2013-10-11 04:17:00,71.8,65.3,29.90,SSE,158,8.1,8.1,80,0.00,CLR,,0.00,0.0,WeatherDisplay:10.37,2013-10-11 09:17:00,
2013-10-11 04:22:00,71.6,65.1,29.90,South,180,5.8,5.8,80,0.00,CLR,,0.00,0.0,WeatherDisplay:10.37,2013-10-11 09:22:00,
2013-10-11 04:27:00,71.6,65.5,29.90,ESE,112,9.2,9.2,81,0.00,CLR,,0.00,0.0,WeatherDisplay:10.37,2013-10-11 09:27:00,
2013-10-11 04:32:00,71.8,65.6,29.90,ESE,112,8.1,8.1,81,0.00,CLR,,0.00,0.0,WeatherDisplay:10.37,2013-10-11 09:32:00,
2013-10-11 04:37:00,71.8,65.6,29.90,SE,135,8.1,8.1,81,0.00,CLR,,0.00,0.0,WeatherDisplay:10.37,2013-10-11 09:37:00,
2013-10-11 04:42:00,71.6,65.5,29.90,SSE,158,4.6,5.4,81,0.00,CLR,,0.00,0.0,WeatherDisplay:10.37,2013-10-11 09:42:00,
2013-10-11 04:47:00,71.6,65.5,29.90,SSE,158,3.5,4.8,81,0.00,CLR,,0.00,0.0,WeatherDisplay:10.37,2013-10-11 09:47:00,
2013-10-11 04:52:00,71.4,65.3,29.90,SSE,158,4.6,4.6,81,0.00,CLR,,0.00,0.0,WeatherDisplay:10.37,2013-10-11 09:52:00,
2013-10-11 04:57:00,71.4,65.3,29.90,SSE,158,2.3,3.6,81,0.00,CLR,,0.00,0.0,WeatherDisplay:10.37,2013-10-11 09:57:00,
2013-10-11 05:02:00,71.4,65.3,29.90,South,180,5.8,5.8,81,0.00,CLR,,0.00,0.0,WeatherDisplay:10.37,2013-10-11 10:02:00,
2013-10-11 05:07:00,71.4,65.3,29.90,SE,135,4.6,4.6,81,0.00,CLR,,0.00,0.0,WeatherDisplay:10.37,2013-10-11 10:07:00,
2013-10-11 05:12:00,71.2,65.5,29.90,SSE,158,5.8,5.8,82,0.00,CLR,,0.00,0.0,WeatherDisplay:10.37,2013-10-11 10:12:00,
2013-10-11 05:17:00,71.2,65.5,29.90,SE,135,7.2,7.2,82,0.00,CLR,,0.00,0.0,WeatherDisplay:10.37,2013-10-11 10:17:00,
2013-10-11 05:22:00,71.2,65.5,29.90,SE,135,5.8,5.8,82,0.00,CLR,,0.00,0.0,WeatherDisplay:10.37,2013-10-11 10:22:00,
2013-10-11 05:27:00,71.2,65.5,29.90,SSE,158,6.9,6.9,82,0.00,CLR,,0.00,0.0,WeatherDisplay:10.37,2013-10-11 10:27:00,
2013-10-11 05:32:00,71.2,65.5,29.90,ESE,112,5.8,5.8,82,0.00,CLR,,0.00,0.0,WeatherDisplay:10.37,2013-10-11 10:32:00,
2013-10-11 05:37:00,71.2,65.5,29.90,ESE,112,4.6,4.9,82,0.00,CLR,,0.00,0.0,WeatherDisplay:10.37,2013-10-11 10:37:00,
2013-10-11 05:42:00,71.2,65.5,29.90,SSE,158,5.8,5.8,82,0.00,CLR,,0.00,0.0,WeatherDisplay:10.37,2013-10-11 10:42:00,
2013-10-11 05:47:00,71.4,66.0,29.90,SSE,158,5.8,5.8,83,0.00,CLR,,0.00,0.0,WeatherDisplay:10.37,2013-10-11 10:47:00,
2013-10-11 05:52:00,71.4,66.0,29.90,SSE,158,8.1,8.1,83,0.00,CLR,,0.00,0.0,WeatherDisplay:10.37,2013-10-11 10:52:00,
2013-10-11 05:57:00,71.4,66.0,29.90,SSE,158,6.9,6.9,83,0.00,CLR,,0.00,0.0,WeatherDisplay:10.37,2013-10-11 10:57:00,
2013-10-11 06:02:00,71.4,66.0,29.90,SE,135,6.9,6.9,83,0.00,CLR,,0.00,0.0,WeatherDisplay:10.37,2013-10-11 11:02:00,
2013-10-11 06:08:00,71.4,66.0,29.91,SE,135,6.9,6.9,83,0.00,CLR,,0.00,0.0,WeatherDisplay:10.37,2013-10-11 11:08:00,
2013-10-11 06:12:00,71.4,66.0,29.91,South,180,6.9,6.9,83,0.00,CLR,,0.00,0.0,WeatherDisplay:10.37,2013-10-11 11:12:00,
2013-10-11 06:18:00,71.4,66.0,29.91,SE,135,5.8,5.8,83,0.00,CLR,,0.00,0.0,WeatherDisplay:10.37,2013-10-11 11:18:00,
2013-10-11 06:23:00,71.4,66.0,29.91,South,180,8.1,8.1,83,0.00,CLR,,0.00,0.0,WeatherDisplay:10.37,2013-10-11 11:23:00,
2013-10-11 06:28:00,71.4,66.0,29.91,ESE,112,4.6,4.9,83,0.00,CLR,,0.00,0.0,WeatherDisplay:10.37,2013-10-11 11:28:00,
2013-10-11 06:33:00,71.4,66.0,29.91,SE,135,6.2,6.2,83,0.00,CLR,,0.00,0.0,WeatherDisplay:10.37,2013-10-11 11:33:00,
2013-10-11 06:38:00,71.2,65.8,29.91,SSE,158,5.8,5.8,83,0.00,CLR,,0.00,0.0,WeatherDisplay:10.37,2013-10-11 11:38:00,
2013-10-11 06:43:00,71.4,66.0,29.91,SSE,158,5.2,5.2,83,0.00,CLR,,0.00,0.0,WeatherDisplay:10.37,2013-10-11 11:43:00,
2013-10-11 06:48:00,71.4,66.0,29.92,ESE,112,8.1,8.1,83,0.00,CLR,,0.00,0.0,WeatherDisplay:10.37,2013-10-11 11:48:00,
2013-10-11 06:53:00,71.2,65.8,29.92,SSE,158,9.2,9.2,83,0.00,CLR,,0.00,0.0,WeatherDisplay:10.37,2013-10-11 11:53:00,
2013-10-11 06:58:00,71.4,66.0,29.92,SSE,158,8.1,8.1,83,0.00,CLR,,0.00,0.0,WeatherDisplay:10.37,2013-10-11 11:58:00,
2013-10-11 07:03:00,71.2,65.8,29.92,SW,225,3.5,3.7,83,0.00,OVC,,0.00,0.0,WeatherDisplay:10.37,2013-10-11 12:03:00,
2013-10-11 07:08:00,71.1,65.6,29.94,SSE,158,3.5,3.5,83,0.00,OVC,,0.00,0.0,WeatherDisplay:10.37,2013-10-11 12:08:00,
2013-10-11 07:13:00,71.1,65.6,29.94,West,270,0.0,1.5,83,0.00,OVC,,0.00,0.0,WeatherDisplay:10.37,2013-10-11 12:13:00,
2013-10-11 07:18:00,71.1,65.6,29.94,SW,225,1.2,1.2,83,0.00,OVC,,0.00,0.0,WeatherDisplay:10.37,2013-10-11 12:18:00,
2013-10-11 07:23:00,71.1,65.6,29.94,ESE,112,2.3,2.3,83,0.00,OVC,,0.00,0.0,WeatherDisplay:10.37,2013-10-11 12:23:00,
2013-10-11 07:28:00,71.1,65.6,29.96,SE,135,3.5,3.5,83,0.00,OVC,,0.00,0.0,WeatherDisplay:10.37,2013-10-11 12:28:00,
2013-10-11 07:33:00,71.2,65.8,29.96,SE,135,0.0,1.2,83,0.00,OVC,,0.00,0.0,WeatherDisplay:10.37,2013-10-11 12:33:00,
2013-10-11 07:38:00,71.1,65.6,29.96,SSE,158,2.3,2.3,83,0.00,OVC,,0.00,0.0,WeatherDisplay:10.37,2013-10-11 12:38:00,
2013-10-11 07:43:00,71.1,65.6,29.96,SSE,158,4.6,4.6,83,0.00,OVC,,0.00,0.0,WeatherDisplay:10.37,2013-10-11 12:43:00,
2013-10-11 07:48:00,71.1,65.6,29.95,SSE,158,6.9,6.9,83,0.00,OVC,,0.00,0.0,WeatherDisplay:10.37,2013-10-11 12:48:00,
2013-10-11 07:53:00,71.1,65.6,29.95,West,270,0.0,3.2,83,0.00,OVC,,0.00,0.0,WeatherDisplay:10.37,2013-10-11 12:53:00,
2013-10-11 07:58:00,71.1,65.6,29.95,SSE,158,2.8,2.8,83,0.00,OVC,,0.00,0.0,WeatherDisplay:10.37,2013-10-11 12:58:00,
2013-10-11 08:03:00,71.1,65.6,29.95,SSE,158,5.8,5.8,83,0.00,OVC,,0.00,0.0,WeatherDisplay:10.37,2013-10-11 13:03:00,
2013-10-11 08:08:00,71.2,65.8,29.95,SSE,158,4.6,4.6,83,0.00,OVC,,0.00,0.0,WeatherDisplay:10.37,2013-10-11 13:08:00,
2013-10-11 08:13:00,71.2,65.8,29.97,WSW,248,1.4,2.5,83,0.00,OVC,,0.00,0.0,WeatherDisplay:10.37,2013-10-11 13:13:00,
2013-10-11 08:18:00,71.1,65.6,29.97,South,180,4.6,4.6,83,0.00,OVC,,0.00,0.0,WeatherDisplay:10.37,2013-10-11 13:18:00,
2013-10-11 08:23:00,71.1,65.6,29.97,SE,135,4.6,4.6,83,0.00,OVC,,0.00,0.0,WeatherDisplay:10.37,2013-10-11 13:23:00,
2013-10-11 08:28:00,71.2,65.8,29.97,South,180,3.5,3.5,83,0.00,OVC,,0.00,0.0,WeatherDisplay:10.37,2013-10-11 13:28:00,
2013-10-11 08:33:00,71.4,66.0,29.97,SE,135,4.6,4.6,83,0.00,OVC,,0.00,0.0,WeatherDisplay:10.37,2013-10-11 13:33:00,
2013-10-11 08:38:00,71.4,66.0,29.97,SSE,158,4.6,4.6,83,0.00,OVC,,0.00,0.0,WeatherDisplay:10.37,2013-10-11 13:38:00,
2013-10-11 08:43:00,71.4,66.0,29.97,SSE,158,6.9,6.9,83,0.00,OVC,,0.00,0.0,WeatherDisplay:10.37,2013-10-11 13:43:00,
2013-10-11 08:48:00,71.2,65.8,29.97,ESE,112,5.8,5.8,83,0.00,OVC,,0.00,0.0,WeatherDisplay:10.37,2013-10-11 13:48:00,
2013-10-11 08:53:00,71.4,66.0,29.97,SSE,158,8.5,8.5,83,0.00,OVC,,0.00,0.0,WeatherDisplay:10.37,2013-10-11 13:53:00,
2013-10-11 08:58:00,71.4,66.0,29.97,East,90,4.6,4.6,83,0.00,OVC,,0.00,0.0,WeatherDisplay:10.37,2013-10-11 13:58:00,
2013-10-11 09:03:00,71.4,66.0,29.97,SSE,158,2.3,2.6,83,0.00,OVC,,0.00,0.0,WeatherDisplay:10.37,2013-10-11 14:03:00,
2013-10-11 09:08:00,71.8,66.3,29.98,South,180,3.5,3.5,83,0.00,OVC,,0.00,0.0,WeatherDisplay:10.37,2013-10-11 14:08:00,
2013-10-11 09:13:00,71.8,66.3,29.98,NNW,338,2.3,3.5,83,0.00,OVC,,0.00,0.0,WeatherDisplay:10.37,2013-10-11 14:13:00,
2013-10-11 09:18:00,71.8,66.3,29.98,SE,135,4.6,4.6,83,0.00,OVC,,0.00,0.0,WeatherDisplay:10.37,2013-10-11 14:18:00,
2013-10-11 09:23:00,72.0,66.5,29.98,SSE,158,4.6,4.6,83,0.00,OVC,,0.00,0.0,WeatherDisplay:10.37,2013-10-11 14:23:00,
2013-10-11 09:28:00,72.0,66.2,29.98,West,270,8.1,8.1,82,0.00,OVC,,0.00,0.0,WeatherDisplay:10.37,2013-10-11 14:28:00,
2013-10-11 09:33:00,72.3,66.5,29.98,SE,135,2.3,3.6,82,0.00,OVC,,0.00,0.0,WeatherDisplay:10.37,2013-10-11 14:33:00,
2013-10-11 09:38:00,72.5,66.7,29.98,SSE,158,5.8,5.8,82,0.00,OVC,,0.00,0.0,WeatherDisplay:10.37,2013-10-11 14:38:00,
2013-10-11 09:43:00,72.3,66.5,29.98,SSE,158,6.9,6.9,82,0.00,OVC,,0.00,0.0,WeatherDisplay:10.37,2013-10-11 14:43:00,
2013-10-11 09:48:00,72.3,66.5,29.98,SSE,158,9.2,9.2,82,0.00,OVC,,0.00,0.0,WeatherDisplay:10.37,2013-10-11 14:48:00,
2013-10-11 09:53:00,72.5,66.7,29.98,South,180,5.8,5.8,82,0.00,OVC,,0.00,0.0,WeatherDisplay:10.37,2013-10-11 14:53:00,
2013-10-11 09:58:00,72.9,67.0,29.98,SE,135,6.9,6.9,82,0.00,OVC,,0.00,0.0,WeatherDisplay:10.37,2013-10-11 14:58:00,
2013-10-11 10:03:00,72.9,67.0,29.98,South,180,9.2,9.2,82,0.00,OVC,,0.00,0.0,WeatherDisplay:10.37,2013-10-11 15:03:00,
2013-10-11 10:08:00,72.9,67.0,29.97,SE,135,3.5,4.8,82,0.00,OVC,,0.00,0.0,WeatherDisplay:10.37,2013-10-11 15:08:00,
2013-10-11 10:13:00,73.0,67.2,29.97,SSE,158,0.0,3.2,82,0.00,OVC,,0.00,0.0,WeatherDisplay:10.37,2013-10-11 15:13:00,
2013-10-11 10:18:00,73.2,67.4,29.97,South,180,8.1,8.1,82,0.00,OVC,,0.00,0.0,WeatherDisplay:10.37,2013-10-11 15:18:00,
2013-10-11 10:23:00,73.4,67.6,29.97,SE,135,8.2,8.2,82,0.00,OVC,,0.00,0.0,WeatherDisplay:10.37,2013-10-11 15:23:00,
2013-10-11 10:28:00,73.8,67.9,29.97,SSE,158,6.9,6.9,82,0.00,OVC,,0.00,0.0,WeatherDisplay:10.37,2013-10-11 15:28:00,
2013-10-11 10:33:00,73.9,68.1,29.97,SSW,202,4.6,4.6,82,0.00,OVC,,0.00,0.0,WeatherDisplay:10.37,2013-10-11 15:33:00,
2013-10-11 10:38:00,74.1,68.3,29.97,SE,135,6.9,6.9,82,0.00,OVC,,0.00,0.0,WeatherDisplay:10.37,2013-10-11 15:38:00,
2013-10-11 10:43:00,74.5,68.3,29.97,SSE,158,8.1,8.1,81,0.00,OVC,,0.00,0.0,WeatherDisplay:10.37,2013-10-11 15:43:00,
2013-10-11 10:48:00,74.7,68.4,29.97,SSE,158,3.5,3.5,81,0.00,OVC,,0.00,0.0,WeatherDisplay:10.37,2013-10-11 15:48:00,
2013-10-11 10:53:00,75.0,68.8,29.97,South,180,5.9,5.9,81,0.00,OVC,,0.00,0.0,WeatherDisplay:10.37,2013-10-11 15:53:00,
2013-10-11 10:59:00,75.4,69.1,29.97,WSW,248,6.9,6.9,81,0.00,OVC,,0.00,0.0,WeatherDisplay:10.37,2013-10-11 15:59:00,
2013-10-11 11:04:00,75.7,69.5,29.97,SE,135,9.2,9.2,81,0.00,OVC,,0.00,0.0,WeatherDisplay:10.37,2013-10-11 16:04:00,
2013-10-11 11:09:00,75.7,69.1,29.96,SE,135,13.8,13.8,80,0.00,OVC,,0.00,0.0,WeatherDisplay:10.37,2013-10-11 16:09:00,
2013-10-11 11:14:00,76.1,69.5,29.96,SSW,202,13.8,13.8,80,0.00,OVC,,0.00,0.0,WeatherDisplay:10.37,2013-10-11 16:14:00,
2013-10-11 11:19:00,76.5,69.8,29.96,SSW,202,6.9,6.9,80,0.00,OVC,,0.00,0.0,WeatherDisplay:10.37,2013-10-11 16:19:00,
2013-10-11 11:24:00,76.6,70.0,29.96,SE,135,6.9,6.9,80,0.00,OVC,,0.00,0.0,WeatherDisplay:10.37,2013-10-11 16:24:00,
2013-10-11 11:29:00,77.0,70.0,29.96,SSE,158,10.4,10.4,79,0.00,OVC,,0.00,0.0,WeatherDisplay:10.37,2013-10-11 16:29:00,
2013-10-11 11:34:00,77.2,69.8,29.96,SSW,202,3.5,4.3,78,0.00,OVC,,0.00,0.0,WeatherDisplay:10.37,2013-10-11 16:34:00,
2013-10-11 11:39:00,77.5,70.1,29.96,South,180,5.8,5.8,78,0.00,OVC,,0.00,0.0,WeatherDisplay:10.37,2013-10-11 16:39:00,
2013-10-11 11:44:00,78.1,70.7,29.96,SW,225,8.1,8.1,78,0.00,OVC,,0.00,0.0,WeatherDisplay:10.37,2013-10-11 16:44:00,
2013-10-11 11:49:00,78.4,70.6,29.95,SSE,158,4.6,4.6,77,0.00,OVC,,0.00,0.0,WeatherDisplay:10.37,2013-10-11 16:49:00,
2013-10-11 11:54:00,78.6,70.4,29.95,SE,135,8.1,8.1,76,0.00,OVC,,0.00,0.0,WeatherDisplay:10.37,2013-10-11 16:54:00,
2013-10-11 11:59:00,79.0,70.8,29.95,South,180,1.6,3.9,76,0.00,OVC,,0.00,0.0,WeatherDisplay:10.37,2013-10-11 16:59:00,
2013-10-11 12:04:00,78.8,70.6,29.95,South,180,6.9,6.9,76,0.00,OVC,,0.00,0.0,WeatherDisplay:10.37,2013-10-11 17:04:00,
2013-10-11 12:09:00,78.8,70.6,29.95,South,180,6.9,6.9,76,0.00,OVC,,0.00,0.0,WeatherDisplay:10.37,2013-10-11 17:09:00,
2013-10-11 12:14:00,79.3,70.7,29.95,South,180,6.9,6.9,75,0.00,OVC,,0.00,0.0,WeatherDisplay:10.37,2013-10-11 17:14:00,
2013-10-11 12:19:00,79.5,70.5,29.95,South,180,2.3,3.1,74,0.00,OVC,,0.00,10.0,WeatherDisplay:10.37,2013-10-11 17:19:00,
2013-10-11 12:24:00,79.9,70.8,29.95,SE,135,4.6,4.6,74,0.00,OVC,,0.00,10.0,WeatherDisplay:10.37,2013-10-11 17:24:00,
2013-10-11 12:29:00,80.1,71.0,29.94,ENE,68,3.5,3.5,74,0.00,OVC,,0.00,0.0,WeatherDisplay:10.37,2013-10-11 17:29:00,
2013-10-11 12:34:00,80.2,71.2,29.94,ESE,112,12.7,12.7,74,0.00,OVC,,0.00,0.0,WeatherDisplay:10.37,2013-10-11 17:34:00,
2013-10-11 12:39:00,80.2,70.8,29.94,South,180,5.8,5.8,73,0.00,BKN,,0.00,10.0,WeatherDisplay:10.37,2013-10-11 17:39:00,
2013-10-11 12:44:00,80.4,71.0,29.94,SSE,158,9.8,9.8,73,0.00,OVC,,0.00,10.0,WeatherDisplay:10.37,2013-10-11 17:44:00,
2013-10-11 12:49:00,80.8,71.3,29.93,SE,135,8.1,8.1,73,0.00,OVC,,0.00,10.0,WeatherDisplay:10.37,2013-10-11 17:49:00,
2013-10-11 12:54:00,80.8,70.9,29.93,WNW,292,4.6,4.6,72,0.00,OVC,,0.00,10.0,WeatherDisplay:10.37,2013-10-11 17:54:00,
2013-10-11 12:59:00,81.0,70.7,29.93,SE,135,6.9,6.9,71,0.00,OVC,,0.00,10.0,WeatherDisplay:10.37,2013-10-11 17:59:00,
2013-10-11 13:04:00,81.3,71.4,29.93,SE,135,10.4,10.4,72,0.00,OVC,,0.00,10.0,WeatherDisplay:10.37,2013-10-11 18:04:00,
2013-10-11 13:09:00,81.5,70.8,29.92,WSW,248,1.5,2.4,70,0.00,OVC,,0.00,10.0,WeatherDisplay:10.37,2013-10-11 18:09:00,
2013-10-11 13:14:00,81.7,71.4,29.92,SE,135,5.8,5.8,71,0.00,OVC,,0.00,10.0,WeatherDisplay:10.37,2013-10-11 18:14:00,
2013-10-11 13:19:00,81.9,71.5,29.92,ESE,112,1.2,2.8,71,0.00,OVC,,0.00,10.0,WeatherDisplay:10.37,2013-10-11 18:19:00,
2013-10-11 13:24:00,82.2,71.5,29.92,South,180,7.0,7.0,70,0.00,OVC,,0.00,10.0,WeatherDisplay:10.37,2013-10-11 18:24:00,
2013-10-11 13:29:00,82.4,71.2,29.91,WNW,292,1.4,3.2,69,0.00,OVC,,0.00,10.0,WeatherDisplay:10.37,2013-10-11 18:29:00,
2013-10-11 13:34:00,82.6,71.4,29.91,SSE,158,6.9,6.9,69,0.00,OVC,,0.00,10.0,WeatherDisplay:10.37,2013-10-11 18:34:00,
2013-10-11 13:39:00,82.6,71.4,29.91,NE,45,4.6,4.6,69,0.00,OVC,,0.00,0.0,WeatherDisplay:10.37,2013-10-11 18:39:00,
2013-10-11 13:44:00,82.9,71.3,29.91,ESE,112,5.8,5.8,68,0.00,OVC,,0.00,0.0,WeatherDisplay:10.37,2013-10-11 18:44:00,
2013-10-11 13:49:00,83.3,71.2,29.91,WSW,248,2.3,3.2,67,0.00,OVC,,0.00,10.0,WeatherDisplay:10.37,2013-10-11 18:49:00,
2013-10-11 13:54:00,83.7,71.1,29.91,NW,315,2.3,2.3,66,0.00,OVC,,0.00,10.0,WeatherDisplay:10.37,2013-10-11 18:54:00,
2013-10-11 13:59:00,83.5,71.4,29.91,WSW,248,2.3,2.3,67,0.00,OVC,,0.00,0.0,WeatherDisplay:10.37,2013-10-11 18:59:00,
2013-10-11 14:04:00,83.7,71.1,29.91,SSW,202,2.8,2.8,66,0.00,OVC,,0.00,10.0,WeatherDisplay:10.37,2013-10-11 19:04:00,
2013-10-11 14:09:00,83.7,71.1,29.89,ENE,68,5.8,5.8,66,0.00,OVC,,0.00,0.0,WeatherDisplay:10.37,2013-10-11 19:09:00,
2013-10-11 14:14:00,83.3,70.8,29.89,SSW,202,4.6,4.6,66,0.00,OVC,,0.00,0.0,WeatherDisplay:10.37,2013-10-11 19:14:00,
2013-10-11 14:19:00,83.1,70.6,29.89,SW,225,3.5,3.5,66,0.00,OVC,,0.00,0.0,WeatherDisplay:10.37,2013-10-11 19:19:00,
2013-10-11 14:24:00,83.1,70.6,29.89,SW,225,2.3,2.3,66,0.00,OVC,,0.00,0.0,WeatherDisplay:10.37,2013-10-11 19:24:00,
2013-10-11 14:29:00,83.1,70.6,29.88,SSW,202,1.3,1.5,66,0.00,OVC,,0.00,0.0,WeatherDisplay:10.37,2013-10-11 19:29:00,
2013-10-11 14:34:00,83.7,71.1,29.88,South,180,6.9,6.9,66,0.00,OVC,,0.00,0.0,WeatherDisplay:10.37,2013-10-11 19:34:00,
2013-10-11 14:39:00,83.7,71.1,29.88,ESE,112,6.1,6.1,66,0.00,OVC,,0.00,0.0,WeatherDisplay:10.37,2013-10-11 19:39:00,
2013-10-11 14:44:00,83.7,71.1,29.88,SSE,158,3.5,3.5,66,0.00,OVC,,0.00,0.0,WeatherDisplay:10.37,2013-10-11 19:44:00,
2013-10-11 14:49:00,83.8,71.3,29.87,SE,135,5.8,5.8,66,0.00,OVC,,0.00,0.0,WeatherDisplay:10.37,2013-10-11 19:49:00,
2013-10-11 14:54:00,84.0,71.4,29.87,SSE,158,4.6,4.6,66,0.00,OVC,,0.00,0.0,WeatherDisplay:10.37,2013-10-11 19:54:00,
2013-10-11 14:59:00,84.0,71.4,29.87,SE,135,0.0,2.6,66,0.00,OVC,,0.00,0.0,WeatherDisplay:10.37,2013-10-11 19:59:00,
2013-10-11 15:04:00,84.0,71.4,29.87,SSE,158,2.3,2.3,66,0.00,OVC,,0.00,0.0,WeatherDisplay:10.37,2013-10-11 20:04:00,
2013-10-11 15:09:00,84.0,71.4,29.87,SE,135,4.6,4.6,66,0.00,OVC,,0.00,0.0,WeatherDisplay:10.37,2013-10-11 20:09:00,
2013-10-11 15:14:00,84.2,71.6,29.87,South,180,2.3,2.8,66,0.00,OVC,,0.00,0.0,WeatherDisplay:10.37,2013-10-11 20:14:00,
2013-10-11 15:19:00,84.6,71.9,29.87,SE,135,6.6,6.6,66,0.00,OVC,,0.00,10.0,WeatherDisplay:10.37,2013-10-11 20:19:00,
2013-10-11 15:24:00,84.7,72.1,29.87,South,180,5.8,5.8,66,0.00,OVC,,0.00,10.0,WeatherDisplay:10.37,2013-10-11 20:24:00,
2013-10-11 15:29:00,85.1,72.5,29.87,NNW,338,2.3,3.0,66,0.00,OVC,,0.00,10.0,WeatherDisplay:10.37,2013-10-11 20:29:00,
2013-10-11 15:34:00,85.5,72.3,29.87,South,180,3.5,3.5,65,0.00,OVC,,0.00,10.0,WeatherDisplay:10.37,2013-10-11 20:34:00,
2013-10-11 15:39:00,85.5,71.9,29.87,SSE,158,9.2,9.2,64,0.00,OVC,,0.00,10.0,WeatherDisplay:10.37,2013-10-11 20:39:00,
2013-10-11 15:44:00,85.3,71.7,29.87,SW,225,2.3,3.5,64,0.00,OVC,,0.00,0.0,WeatherDisplay:10.37,2013-10-11 20:44:00,
2013-10-11 15:49:00,85.1,71.5,29.86,ENE,68,5.8,5.8,64,0.00,OVC,,0.00,0.0,WeatherDisplay:10.37,2013-10-11 20:49:00,
2013-10-11 15:54:00,85.1,72.0,29.86,WSW,248,8.1,8.1,65,0.00,OVC,,0.00,0.0,WeatherDisplay:10.37,2013-10-11 20:54:00,
2013-10-11 15:59:00,85.1,72.0,29.86,SSE,158,2.3,2.9,65,0.00,OVC,,0.00,0.0,WeatherDisplay:10.37,2013-10-11 20:59:00,
2013-10-11 16:04:00,84.9,71.8,29.86,South,180,4.6,4.6,65,0.00,OVC,,0.00,0.0,WeatherDisplay:10.37,2013-10-11 21:04:00,
2013-10-11 16:09:00,84.7,71.7,29.86,South,180,5.8,5.8,65,0.00,OVC,,0.00,0.0,WeatherDisplay:10.37,2013-10-11 21:09:00,
2013-10-11 16:14:00,84.7,71.7,29.86,South,180,5.8,5.8,65,0.00,OVC,,0.00,0.0,WeatherDisplay:10.37,2013-10-11 21:14:00,
2013-10-11 16:19:00,84.7,71.7,29.86,SW,225,4.6,4.6,65,0.00,OVC,,0.00,0.0,WeatherDisplay:10.37,2013-10-11 21:19:00,
2013-10-11 16:24:00,85.1,71.5,29.86,WSW,248,4.6,4.6,64,0.00,OVC,,0.00,0.0,WeatherDisplay:10.37,2013-10-11 21:24:00,
2013-10-11 16:29:00,85.1,71.5,29.86,NE,45,2.3,2.8,64,0.00,OVC,,0.00,0.0,WeatherDisplay:10.37,2013-10-11 21:29:00,
2013-10-11 16:34:00,85.1,71.5,29.86,South,180,2.3,2.3,64,0.00,OVC,,0.00,0.0,WeatherDisplay:10.37,2013-10-11 21:34:00,
2013-10-11 16:39:00,84.7,71.2,29.86,South,180,3.5,3.5,64,0.00,OVC,,0.00,0.0,WeatherDisplay:10.37,2013-10-11 21:39:00,
2013-10-11 16:45:00,84.7,71.2,29.86,South,180,2.3,2.3,64,0.00,OVC,,0.00,0.0,WeatherDisplay:10.37,2013-10-11 21:45:00,
2013-10-11 16:50:00,84.6,71.5,29.86,SE,135,2.3,2.3,65,0.00,OVC,,0.00,0.0,WeatherDisplay:10.37,2013-10-11 21:50:00,
2013-10-11 16:55:00,84.6,71.5,29.86,ENE,68,1.2,1.3,65,0.00,OVC,,0.00,0.0,WeatherDisplay:10.37,2013-10-11 21:55:00,
2013-10-11 17:00:00,84.6,71.0,29.86,South,180,4.6,4.6,64,0.00,OVC,,0.00,0.0,WeatherDisplay:10.37,2013-10-11 22:00:00,
2013-10-11 17:05:00,84.7,71.2,29.86,SSE,158,2.3,2.3,64,0.00,OVC,,0.00,0.0,WeatherDisplay:10.37,2013-10-11 22:05:00,
2013-10-11 17:10:00,84.7,71.7,29.87,SW,225,2.3,2.3,65,0.00,OVC,,0.00,0.0,WeatherDisplay:10.37,2013-10-11 22:10:00,
2013-10-11 17:15:00,84.6,71.5,29.87,SSW,202,2.3,2.3,65,0.00,OVC,,0.00,0.0,WeatherDisplay:10.37,2013-10-11 22:15:00,
2013-10-11 17:20:00,84.4,71.3,29.87,South,180,2.3,2.3,65,0.00,OVC,,0.00,0.0,WeatherDisplay:10.37,2013-10-11 22:20:00,
2013-10-11 17:25:00,84.4,71.3,29.87,South,180,3.5,3.5,65,0.00,OVC,,0.00,0.0,WeatherDisplay:10.37,2013-10-11 22:25:00,
2013-10-11 17:30:00,84.4,71.8,29.87,WSW,248,2.3,2.3,66,0.00,OVC,,0.00,0.0,WeatherDisplay:10.37,2013-10-11 22:30:00,
2013-10-11 17:35:00,84.2,71.2,29.87,WSW,248,1.2,1.5,65,0.00,OVC,,0.00,0.0,WeatherDisplay:10.37,2013-10-11 22:35:00,
2013-10-11 17:40:00,84.4,71.8,29.87,NW,315,4.6,4.6,66,0.00,OVC,,0.00,0.0,WeatherDisplay:10.37,2013-10-11 22:40:00,
2013-10-11 17:45:00,84.6,71.9,29.87,SE,135,2.3,2.3,66,0.00,OVC,,0.00,0.0,WeatherDisplay:10.37,2013-10-11 22:45:00,
2013-10-11 17:50:00,84.6,71.9,29.86,SSE,158,2.3,2.3,66,0.00,OVC,,0.00,0.0,WeatherDisplay:10.37,2013-10-11 22:50:00,
2013-10-11 17:55:00,84.6,71.9,29.86,SSE,158,3.5,3.5,66,0.00,OVC,,0.00,0.0,WeatherDisplay:10.37,2013-10-11 22:55:00,
2013-10-11 18:00:00,84.7,71.7,29.86,West,270,2.3,2.4,65,0.00,OVC,,0.00,0.0,WeatherDisplay:10.37,2013-10-11 23:00:00,
2013-10-11 18:05:00,84.6,71.9,29.86,SSE,158,4.6,4.6,66,0.00,OVC,,0.00,0.0,WeatherDisplay:10.37,2013-10-11 23:05:00,
2013-10-11 18:10:00,84.4,71.8,29.87,SSE,158,1.2,2.0,66,0.00,OVC,,0.00,0.0,WeatherDisplay:10.37,2013-10-11 23:10:00,
2013-10-11 18:15:00,84.4,71.8,29.87,SSE,158,4.6,4.6,66,0.00,OVC,,0.00,0.0,WeatherDisplay:10.37,2013-10-11 23:15:00,
2013-10-11 18:20:00,84.4,71.8,29.87,SE,135,4.6,4.6,66,0.00,OVC,,0.00,0.0,WeatherDisplay:10.37,2013-10-11 23:20:00,
2013-10-11 18:25:00,84.0,71.4,29.87,South,180,2.3,2.4,66,0.00,OVC,,0.00,0.0,WeatherDisplay:10.37,2013-10-11 23:25:00,
2013-10-11 18:30:00,84.0,71.4,29.87,South,180,4.6,4.6,66,0.00,OVC,,0.00,0.0,WeatherDisplay:10.37,2013-10-11 23:30:00,
2013-10-11 18:35:00,83.8,71.3,29.87,SSW,202,2.4,2.4,66,0.00,OVC,,0.00,0.0,WeatherDisplay:10.37,2013-10-11 23:35:00,
2013-10-11 18:40:00,83.8,71.3,29.87,South,180,1.5,1.7,66,0.00,OVC,,0.00,0.0,WeatherDisplay:10.37,2013-10-11 23:40:00,
2013-10-11 18:45:00,83.7,71.1,29.87,ESE,112,4.6,4.6,66,0.00,OVC,,0.00,0.0,WeatherDisplay:10.37,2013-10-11 23:45:00,
2013-10-11 18:50:00,83.5,71.4,29.87,SE,135,9.2,9.2,67,0.00,OVC,,0.00,0.0,WeatherDisplay:10.37,2013-10-11 23:50:00,
2013-10-11 18:55:00,83.3,70.8,29.87,ESE,112,3.5,3.8,66,0.00,OVC,,0.00,0.0,WeatherDisplay:10.37,2013-10-11 23:55:00,
2013-10-11 19:00:00,83.3,70.8,29.87,SSE,158,9.2,9.2,66,0.00,OVC,,0.00,0.0,WeatherDisplay:10.37,2013-10-12 00:00:00,
2013-10-11 19:05:00,83.3,70.8,29.87,SSE,158,4.6,4.6,66,0.00,OVC,,0.00,0.0,WeatherDisplay:10.37,2013-10-12 00:05:00,
2013-10-11 19:10:00,83.1,71.0,29.87,South,180,6.9,6.9,67,0.00,OVC,,0.00,0.0,WeatherDisplay:10.37,2013-10-12 00:10:00,
2013-10-11 19:15:00,83.3,70.8,29.87,South,180,7.2,7.2,66,0.00,OVC,,0.00,0.0,WeatherDisplay:10.37,2013-10-12 00:15:00,
2013-10-11 19:20:00,83.3,70.8,29.87,SSE,158,9.2,9.2,66,0.00,OVC,,0.00,0.0,WeatherDisplay:10.37,2013-10-12 00:20:00,
2013-10-11 19:25:00,83.3,70.8,29.87,SSE,158,5.8,5.8,66,0.00,OVC,,0.00,0.0,WeatherDisplay:10.37,2013-10-12 00:25:00,
2013-10-11 19:30:00,83.3,70.8,29.86,NNE,22,5.8,5.8,66,0.00,OVC,,0.00,0.0,WeatherDisplay:10.37,2013-10-12 00:30:00,
2013-10-11 19:35:00,83.3,70.8,29.86,SE,135,3.5,3.5,66,0.00,CLR,,0.00,0.0,WeatherDisplay:10.37,2013-10-12 00:35:00,
2013-10-11 19:40:00,83.3,70.8,29.86,SE,135,4.6,4.6,66,0.00,CLR,,0.00,0.0,WeatherDisplay:10.37,2013-10-12 00:40:00,
2013-10-11 19:45:00,83.3,70.8,29.86,SSE,158,2.3,2.6,66,0.00,CLR,,0.00,0.0,WeatherDisplay:10.37,2013-10-12 00:45:00,
2013-10-11 19:50:00,83.3,70.8,29.88,ESE,112,2.3,2.3,66,0.00,CLR,,0.00,0.0,WeatherDisplay:10.37,2013-10-12 00:50:00,
2013-10-11 19:55:00,83.3,70.8,29.88,SE,135,3.5,3.5,66,0.00,CLR,,0.00,0.0,WeatherDisplay:10.37,2013-10-12 00:55:00,
2013-10-11 20:00:00,83.3,70.8,29.88,SE,135,6.9,6.9,66,0.00,CLR,,0.00,0.0,WeatherDisplay:10.37,2013-10-12 01:00:00,
2013-10-11 20:05:00,83.3,70.8,29.88,ENE,68,2.3,3.2,66,0.00,CLR,,0.00,0.0,WeatherDisplay:10.37,2013-10-12 01:05:00,
2013-10-11 20:10:00,83.3,70.8,29.88,East,90,6.9,6.9,66,0.00,CLR,,0.00,0.0,WeatherDisplay:10.37,2013-10-12 01:10:00,
2013-10-11 20:22:00,83.3,70.8,29.88,ESE,112,4.6,4.6,66,0.00,CLR,,0.00,0.0,WeatherDisplay:10.37,2013-10-12 01:22:00,
2013-10-11 20:27:00,83.3,70.8,29.88,ENE,68,4.6,4.6,66,0.00,CLR,,0.00,0.0,WeatherDisplay:10.37,2013-10-12 01:27:00,
2013-10-11 20:33:00,83.3,70.8,29.88,ESE,112,4.6,4.6,66,0.00,CLR,,0.00,0.0,WeatherDisplay:10.37,2013-10-12 01:33:00,
2013-10-11 20:38:00,83.3,70.8,29.88,SE,135,6.9,6.9,66,0.00,CLR,,0.00,0.0,WeatherDisplay:10.37,2013-10-12 01:38:00,
2013-10-11 20:43:00,83.3,70.8,29.88,SE,135,7.2,7.2,66,0.00,CLR,,0.00,0.0,WeatherDisplay:10.37,2013-10-12 01:43:00,
2013-10-11 20:48:00,83.3,70.8,29.89,ESE,112,5.9,5.9,66,0.00,CLR,,0.00,0.0,WeatherDisplay:10.37,2013-10-12 01:48:00,
2013-10-11 20:53:00,83.3,70.8,29.89,SSE,158,6.9,6.9,66,0.00,CLR,,0.00,0.0,WeatherDisplay:10.37,2013-10-12 01:53:00,
2013-10-11 20:58:00,83.3,70.8,29.89,East,90,6.9,6.9,66,0.00,CLR,,0.00,0.0,WeatherDisplay:10.37,2013-10-12 01:58:00,
2013-10-11 21:03:00,83.3,70.8,29.89,SE,135,5.1,5.1,66,0.00,CLR,,0.00,0.0,WeatherDisplay:10.37,2013-10-12 02:03:00,
2013-10-11 21:10:00,83.3,70.8,29.89,ESE,112,10.4,10.4,66,0.00,CLR,,0.00,0.0,WeatherDisplay:10.37,2013-10-12 02:10:00,
2013-10-11 21:15:00,83.3,70.8,29.89,SSE,158,3.5,3.8,66,0.00,CLR,,0.00,0.0,WeatherDisplay:10.37,2013-10-12 02:15:00,
2013-10-11 21:22:00,83.3,70.8,29.89,SE,135,10.4,10.4,66,0.00,CLR,,0.00,0.0,WeatherDisplay:10.37,2013-10-12 02:22:00,
2013-10-11 21:27:00,83.3,70.8,29.89,NE,45,5.8,5.8,66,0.00,CLR,,0.00,0.0,WeatherDisplay:10.37,2013-10-12 02:27:00,
2013-10-11 21:33:00,83.3,70.8,29.89,ESE,112,6.9,6.9,66,0.00,CLR,,0.00,0.0,WeatherDisplay:10.37,2013-10-12 02:33:00,
2013-10-11 21:38:00,83.3,70.8,29.89,SSE,158,5.8,5.8,66,0.00,CLR,,0.00,0.0,WeatherDisplay:10.37,2013-10-12 02:38:00,
2013-10-11 21:44:00,83.3,70.8,29.89,SE,135,8.1,8.1,66,0.00,CLR,,0.00,0.0,WeatherDisplay:10.37,2013-10-12 02:44:00,
2013-10-11 21:49:00,83.3,70.8,29.90,ESE,112,3.6,3.7,66,0.00,CLR,,0.00,0.0,WeatherDisplay:10.37,2013-10-12 02:49:00,
2013-10-11 22:25:00,83.3,70.8,29.91,ESE,112,3.5,3.5,66,0.00,CLR,,0.00,0.0,WeatherDisplay:10.37,2013-10-12 03:25:00,
2013-10-11 22:30:00,80.1,71.4,29.90,SE,135,8.1,8.1,75,0.00,CLR,,0.00,0.0,WeatherDisplay:10.37,2013-10-12 03:30:00,
2013-10-11 22:35:00,79.9,71.2,29.90,SE,135,4.6,4.6,75,0.00,CLR,,0.00,0.0,WeatherDisplay:10.37,2013-10-12 03:35:00,
2013-10-11 22:40:00,80.1,71.4,29.90,SW,225,8.1,8.1,75,0.00,CLR,,0.00,0.0,WeatherDisplay:10.37,2013-10-12 03:40:00,
2013-10-11 22:45:00,80.1,71.4,29.90,ENE,68,5.8,5.8,75,0.00,CLR,,0.00,0.0,WeatherDisplay:10.37,2013-10-12 03:45:00,
2013-10-11 22:50:00,80.1,71.8,29.91,East,90,8.1,8.1,76,0.00,CLR,,0.00,0.0,WeatherDisplay:10.37,2013-10-12 03:50:00,
2013-10-11 22:55:00,79.9,71.6,29.91,SE,135,6.9,6.9,76,0.00,CLR,,0.00,0.0,WeatherDisplay:10.37,2013-10-12 03:55:00,
2013-10-11 23:00:00,79.7,71.5,29.91,SE,135,6.9,6.9,76,0.00,CLR,,0.00,0.0,WeatherDisplay:10.37,2013-10-12 04:00:00,
2013-10-11 23:01:00,79.7,71.5,29.91,SE,135,5.8,5.8,76,0.00,CLR,,0.00,0.0,WeatherDisplay:10.37,2013-10-12 04:01:00,
2013-10-11 23:02:00,79.7,71.5,29.91,ESE,112,5.8,5.8,76,0.00,CLR,,0.00,0.0,WeatherDisplay:10.37,2013-10-12 04:02:00,
2013-10-11 23:07:00,79.7,71.5,29.91,SSW,202,3.9,4.3,76,0.00,CLR,,0.00,0.0,WeatherDisplay:10.37,2013-10-12 04:07:00,
2013-10-11 23:12:00,79.5,71.3,29.92,SE,135,5.1,5.1,76,0.00,CLR,,0.00,0.0,WeatherDisplay:10.37,2013-10-12 04:12:00,
2013-10-11 23:17:00,79.3,71.1,29.92,SE,135,1.2,3.3,76,0.00,CLR,,0.00,0.0,WeatherDisplay:10.37,2013-10-12 04:17:00,
2013-10-11 23:22:00,79.3,71.1,29.92,SSE,158,5.8,5.8,76,0.00,CLR,,0.00,0.0,WeatherDisplay:10.37,2013-10-12 04:22:00,
2013-10-11 23:27:00,79.2,70.9,29.92,South,180,2.3,3.5,76,0.00,CLR,,0.00,0.0,WeatherDisplay:10.37,2013-10-12 04:27:00,
2013-10-11 23:32:00,79.2,70.9,29.91,West,270,8.1,8.1,76,0.00,CLR,,0.00,0.0,WeatherDisplay:10.37,2013-10-12 04:32:00,
2013-10-11 23:37:00,79.0,71.2,29.91,SE,135,2.3,3.0,77,0.00,CLR,,0.00,0.0,WeatherDisplay:10.37,2013-10-12 04:37:00,
2013-10-11 23:42:00,79.0,71.2,29.91,SSE,158,6.9,6.9,77,0.00,CLR,,0.00,0.0,WeatherDisplay:10.37,2013-10-12 04:42:00,
2013-10-11 23:47:00,78.8,71.0,29.91,South,180,5.2,5.2,77,0.00,CLR,,0.00,0.0,WeatherDisplay:10.37,2013-10-12 04:47:00,
2013-10-11 23:52:00,79.0,71.5,29.91,SE,135,4.6,4.6,78,0.00,CLR,,0.00,0.0,WeatherDisplay:10.37,2013-10-12 04:52:00,
2013-10-11 23:57:00,79.0,71.5,29.91,SE,135,7.1,7.1,78,0.00,CLR,,0.00,0.0,WeatherDisplay:10.37,2013-10-12 04:57:00,